Time;durP1;ratioP1;P1;durP2;ratioP2;P2;SDS_P1;SDS_P2;PMS_P1;PMS_P2;Temp;Humidity;BMP_temperature;BMP_pressure;BME280_temperature;BME280_humidity;BME280_pressure;Samples;Min_cycle;Max_cycle;Signal;HPM_P1;HPM_P2
2022/05/02 00:02:21;;;;;;;1.97;1.97;;;18.90;63.70;;;;;;5129982;27;44227;-71
2022/05/02 00:04:49;;;;;;;1.80;1.80;;;18.90;63.90;;;;;;5129748;27;44064;-71
2022/05/02 00:07:19;;;;;;;2.20;2.20;;;18.90;63.90;;;;;;5130184;27;43997;-71
2022/05/02 00:09:47;;;;;;;2.10;2.10;;;18.80;64.50;;;;;;5130375;27;43897;-72
2022/05/02 00:12:15;;;;;;;1.90;1.90;;;18.90;64.70;;;;;;5129880;27;44080;-71
2022/05/02 00:14:43;;;;;;;2.20;2.20;;;19.10;64.60;;;;;;5129299;27;43892;-72
2022/05/02 00:17:15;;;;;;;2.20;2.20;;;19.30;64.10;;;;;;5129877;27;43808;-72
2022/05/02 00:19:43;;;;;;;2.20;2.20;;;19.40;63.30;;;;;;5129273;27;44021;-72
2022/05/02 00:22:11;;;;;;;2.00;2.00;;;19.50;63.00;;;;;;5129834;27;43399;-72
2022/05/02 00:24:40;;;;;;;2.23;2.23;;;19.50;63.00;;;;;;5129026;27;43488;-71
2022/05/02 00:27:08;;;;;;;2.20;2.20;;;19.40;62.80;;;;;;5110788;27;44078;-72
2022/05/02 00:29:36;;;;;;;2.20;2.20;;;19.30;62.60;;;;;;5129239;27;43880;-70
2022/05/02 00:32:09;;;;;;;1.90;1.90;;;19.20;62.70;;;;;;5129337;27;43863;-72
2022/05/02 00:34:37;;;;;;;2.07;2.07;;;19.10;63.00;;;;;;5128950;27;43977;-71
2022/05/02 00:37:05;;;;;;;2.20;2.20;;;19.10;63.30;;;;;;5129944;27;43940;-71
2022/05/02 00:39:33;;;;;;;2.10;2.10;;;19.00;63.40;;;;;;5129179;27;44069;-72
2022/05/02 00:42:03;;;;;;;2.00;2.00;;;19.00;63.80;;;;;;5129659;27;44021;-72
2022/05/02 00:44:31;;;;;;;2.27;2.27;;;19.00;64.50;;;;;;5128905;27;44002;-72
2022/05/02 00:46:59;;;;;;;2.10;2.10;;;19.10;64.50;;;;;;5129477;27;43457;-71
2022/05/02 00:49:26;;;;;;;2.00;2.00;;;19.20;64.10;;;;;;5129312;27;44711;-71
2022/05/02 00:51:54;;;;;;;2.07;2.07;;;19.20;64.50;;;;;;5129759;27;43969;-71
2022/05/02 00:54:22;;;;;;;2.13;2.13;;;19.20;63.40;;;;;;5110088;27;44005;-72
2022/05/02 00:56:50;;;;;;;2.10;2.10;;;19.10;63.20;;;;;;5129870;27;43397;-71
2022/05/02 00:59:20;;;;;;;2.30;2.30;;;19.10;63.40;;;;;;5128833;27;44130;-71
2022/05/02 01:01:47;;;;;;;1.90;1.90;;;19.00;63.50;;;;;;5129478;27;44059;-71
2022/05/02 01:04:16;;;;;;;2.17;2.17;;;18.90;63.70;;;;;;5128836;27;44013;-71
2022/05/02 01:09:29;;;;;;;2.17;2.17;;;18.90;64.00;;;;;;5108461;27;45936;-71
2022/05/02 01:11:57;;;;;;;2.10;2.10;;;18.80;64.00;;;;;;5122698;27;43996;-72
2022/05/02 01:14:26;;;;;;;2.00;2.00;;;18.80;64.20;;;;;;5122292;27;43446;-72
2022/05/02 01:16:54;;;;;;;1.97;1.97;;;18.80;64.80;;;;;;5129208;27;43410;-72
2022/05/02 01:19:22;;;;;;;1.97;1.97;;;18.90;64.90;;;;;;5128250;27;43677;-71
2022/05/02 01:21:51;;;;;;;1.97;1.97;;;19.10;64.70;;;;;;5128940;27;43436;-72
2022/05/02 01:24:19;;;;;;;2.13;2.13;;;19.30;64.20;;;;;;5128149;27;43393;-72
2022/05/02 01:26:47;;;;;;;2.30;2.30;;;19.40;63.60;;;;;;5129387;27;44025;-71
2022/05/02 01:29:15;;;;;;;1.90;1.90;;;19.50;63.20;;;;;;5128671;27;43911;-72
2022/05/02 01:31:46;;;;;;;2.17;2.17;;;19.50;63.10;;;;;;5128266;27;43305;-72
2022/05/02 01:34:14;;;;;;;2.10;2.10;;;19.40;63.00;;;;;;5128413;27;43389;-73
2022/05/02 01:36:44;;;;;;;2.00;2.00;;;19.30;62.90;;;;;;5128437;27;43988;-71
2022/05/02 01:39:13;;;;;;;1.90;1.90;;;19.20;63.00;;;;;;5128715;27;44039;-72
2022/05/02 01:41:41;;;;;;;2.13;2.13;;;19.10;63.20;;;;;;5127964;27;43986;-72
2022/05/02 01:44:10;;;;;;;2.00;2.00;;;19.00;63.40;;;;;;5128285;27;43341;-71
2022/05/02 01:46:39;;;;;;;1.93;1.93;;;19.00;63.70;;;;;;5128357;27;43983;-71
2022/05/02 01:49:07;;;;;;;2.00;2.00;;;18.90;63.70;;;;;;5127823;27;44756;-73
2022/05/02 01:51:35;;;;;;;2.20;2.20;;;18.90;64.60;;;;;;5127757;27;44026;-72
2022/05/02 01:54:03;;;;;;;2.00;2.00;;;19.00;64.60;;;;;;5128210;27;43982;-72
2022/05/02 01:56:32;;;;;;;2.00;2.00;;;19.20;64.10;;;;;;5128199;27;43967;-71
2022/05/02 01:59:00;;;;;;;2.20;2.20;;;19.20;63.70;;;;;;5128007;27;43961;-72
2022/05/02 02:01:29;;;;;;;2.10;2.10;;;19.20;63.50;;;;;;5127502;27;43994;-72
2022/05/02 02:03:57;;;;;;;2.00;2.00;;;19.20;63.20;;;;;;5127879;27;43943;-71
2022/05/02 02:06:24;;;;;;;2.03;2.03;;;19.10;63.30;;;;;;5128195;27;43958;-72
2022/05/02 02:08:52;;;;;;;1.90;1.90;;;19.00;63.50;;;;;;5128290;27;43603;-72
2022/05/02 02:11:20;;;;;;;2.10;2.10;;;19.00;63.70;;;;;;5127551;27;43503;-72
2022/05/02 02:13:50;;;;;;;2.13;2.10;;;18.90;63.70;;;;;;5128056;27;43977;-72
2022/05/02 02:16:18;;;;;;;2.20;2.20;;;18.90;63.90;;;;;;5127785;27;43868;-71
2022/05/02 02:18:46;;;;;;;1.97;1.97;;;18.90;64.00;;;;;;5108940;27;46196;-72
2022/05/02 02:21:14;;;;;;;2.07;2.07;;;18.80;64.00;;;;;;5127747;27;43432;-72
2022/05/02 02:23:43;;;;;;;2.33;2.33;;;18.80;64.30;;;;;;5127113;27;43997;-72
2022/05/02 02:26:10;;;;;;;2.10;2.10;;;18.80;64.60;;;;;;5128268;27;43400;-72
2022/05/02 02:28:39;;;;;;;2.30;2.30;;;19.00;64.60;;;;;;5126993;27;44032;-72
2022/05/02 02:31:10;;;;;;;2.00;2.00;;;19.20;64.20;;;;;;5127690;27;43853;-72
2022/05/02 02:33:38;;;;;;;2.00;2.00;;;19.30;63.70;;;;;;5126758;27;44015;-72
2022/05/02 02:36:06;;;;;;;2.13;2.13;;;19.50;63.20;;;;;;5128148;27;43424;-72
2022/05/02 02:38:34;;;;;;;2.17;2.17;;;19.50;62.90;;;;;;5127081;27;45085;-72
2022/05/02 02:41:02;;;;;;;2.03;2.03;;;19.40;62.90;;;;;;5127455;27;44127;-71
2022/05/02 02:43:30;;;;;;;1.90;1.90;;;19.30;62.70;;;;;;5126673;27;43946;-71
2022/05/02 02:45:58;;;;;;;1.90;1.90;;;19.20;62.80;;;;;;5127773;27;44050;-71
2022/05/02 02:48:27;;;;;;;2.10;2.10;;;19.10;63.00;;;;;;5126953;27;44073;-72
2022/05/02 02:50:55;;;;;;;2.00;2.00;;;19.10;63.30;;;;;;5127512;27;43950;-72
2022/05/02 02:53:23;;;;;;;2.10;2.10;;;19.00;63.50;;;;;;5127150;27;43393;-71
2022/05/02 02:55:51;;;;;;;2.20;2.20;;;18.90;63.70;;;;;;5128109;27;44018;-72
2022/05/02 02:58:22;;;;;;;2.10;2.10;;;18.90;64.10;;;;;;5127043;27;43954;-71
2022/05/02 03:00:50;;;;;;;2.23;2.23;;;18.90;64.60;;;;;;5127292;27;43788;-71
2022/05/02 03:03:18;;;;;;;2.10;2.10;;;19.00;64.50;;;;;;5127318;27;44016;-71
2022/05/02 03:06:02;;;;;;;2.00;2.00;;;19.20;63.90;;;;;;5127930;27;44321;-72
2022/05/02 03:08:30;;;;;;;2.00;2.00;;;19.20;63.40;;;;;;5126401;27;44136;-71
2022/05/02 03:10:59;;;;;;;2.10;2.10;;;19.10;63.20;;;;;;5127220;27;44093;-72
2022/05/02 03:13:27;;;;;;;2.10;2.10;;;19.10;63.20;;;;;;5107473;27;43402;-71
2022/05/02 03:15:54;;;;;;;2.30;2.10;;;19.00;63.40;;;;;;5127507;27;43919;-71
2022/05/02 03:18:23;;;;;;;2.30;2.30;;;18.90;63.50;;;;;;5126459;27;45053;-71
2022/05/02 03:20:52;;;;;;;2.17;2.17;;;18.90;63.80;;;;;;5127034;27;43416;-72
2022/05/02 03:23:23;;;;;;;1.80;1.80;;;18.80;63.90;;;;;;5107781;27;43963;-71
2022/05/02 03:25:50;;;;;;;2.10;2.10;;;18.80;64.10;;;;;;5127506;27;43952;-72
2022/05/02 03:28:18;;;;;;;1.90;1.90;;;18.80;64.20;;;;;;5126655;27;44039;-71
2022/05/02 03:30:46;;;;;;;2.30;2.20;;;18.70;64.20;;;;;;5126763;27;44012;-71
2022/05/02 03:33:14;;;;;;;2.00;2.00;;;18.70;64.70;;;;;;5128775;27;43729;-72
2022/05/02 03:35:42;;;;;;;2.03;2.03;;;18.80;64.70;;;;;;5108145;27;43462;-72
2022/05/02 03:38:15;;;;;;;1.83;1.83;;;19.00;64.40;;;;;;5108136;27;45867;-71
2022/05/02 03:40:43;;;;;;;2.10;2.00;;;19.20;64.00;;;;;;5109424;27;44005;-72
2022/05/02 03:43:11;;;;;;;2.00;2.00;;;19.40;63.40;;;;;;5102971;27;44022;-72
2022/05/02 03:45:39;;;;;;;1.93;1.93;;;19.40;63.00;;;;;;5103147;27;43808;-71
2022/05/02 03:48:07;;;;;;;2.00;2.00;;;19.40;62.80;;;;;;5094221;27;45564;-71
2022/05/02 03:50:35;;;;;;;2.03;2.03;;;19.30;62.70;;;;;;5102410;27;43942;-72
2022/05/02 03:53:04;;;;;;;1.90;1.90;;;19.20;62.70;;;;;;5102644;27;43943;-72
2022/05/02 03:55:33;;;;;;;2.03;2.03;;;19.10;63.00;;;;;;5102848;27;43455;-71
2022/05/02 03:58:02;;;;;;;1.90;1.90;;;19.10;63.30;;;;;;5110050;27;43914;-72
2022/05/02 04:00:30;;;;;;;2.10;2.10;;;19.00;63.50;;;;;;5108543;27;44041;-72
2022/05/02 04:02:58;;;;;;;2.20;2.20;;;18.90;63.70;;;;;;5109269;27;43853;-71
2022/05/02 04:05:26;;;;;;;2.40;2.30;;;18.90;64.30;;;;;;5109954;27;44002;-71
2022/05/02 04:07:54;;;;;;;2.10;2.00;;;18.90;64.60;;;;;;5109185;27;43923;-72
2022/05/02 04:10:22;;;;;;;2.17;2.17;;;19.10;64.40;;;;;;5103900;27;43861;-71
2022/05/02 04:12:51;;;;;;;1.90;1.90;;;19.10;63.90;;;;;;5109144;27;43807;-72
2022/05/02 04:15:19;;;;;;;1.80;1.80;;;19.20;63.70;;;;;;5109307;27;44298;-72
2022/05/02 04:17:47;;;;;;;1.90;1.90;;;19.10;63.30;;;;;;5109161;27;43971;-72
2022/05/02 04:20:15;;;;;;;1.93;1.93;;;19.10;63.40;;;;;;5090839;27;44835;-71
2022/05/02 04:22:43;;;;;;;2.13;2.10;;;19.00;63.50;;;;;;5109798;27;43837;-71
2022/05/02 04:25:11;;;;;;;2.40;2.23;;;18.90;63.50;;;;;;5110150;27;43477;-71
2022/05/02 04:27:39;;;;;;;4.53;2.43;;;18.90;63.70;;;;;;5108798;27;43738;-71
2022/05/02 04:30:10;;;;;;;2.50;2.40;;;18.80;63.90;;;;;;5109238;27;43913;-72
2022/05/02 04:32:39;;;;;;;4.20;2.30;;;18.80;64.00;;;;;;5109164;27;43393;-71
2022/05/02 04:35:10;;;;;;;3.53;2.40;;;18.80;64.20;;;;;;5109381;27;43982;-71
2022/05/02 04:37:40;;;;;;;4.10;2.40;;;18.80;64.20;;;;;;5108976;27;44797;-71
2022/05/02 04:40:09;;;;;;;8.13;2.40;;;18.80;64.80;;;;;;5108717;27;44154;-72
2022/05/02 04:42:38;;;;;;;3.30;2.47;;;18.90;64.60;;;;;;5108911;27;44059;-71
2022/05/02 04:45:08;;;;;;;2.63;2.00;;;19.10;64.30;;;;;;5108232;27;43957;-71
2022/05/02 04:47:36;;;;;;;2.60;2.10;;;19.30;63.80;;;;;;5089641;27;47309;-72
2022/05/02 04:50:05;;;;;;;2.20;2.10;;;19.40;63.40;;;;;;5108949;27;43446;-71
2022/05/02 04:52:32;;;;;;;2.60;2.20;;;19.50;62.80;;;;;;5108563;27;44000;-72
2022/05/02 04:55:00;;;;;;;3.83;2.53;;;19.50;62.90;;;;;;5109244;27;44054;-72
2022/05/02 04:57:29;;;;;;;2.40;2.30;;;19.40;62.90;;;;;;5108030;27;44400;-72
2022/05/02 04:59:57;;;;;;;2.17;1.97;;;19.30;62.90;;;;;;5107436;27;45937;-71
2022/05/02 05:02:26;;;;;;;2.17;2.10;;;19.20;63.00;;;;;;5109065;27;44030;-71
2022/05/02 05:04:55;;;;;;;4.40;2.23;;;19.10;63.30;;;;;;5109245;27;43972;-71
2022/05/02 05:07:25;;;;;;;6.67;2.77;;;19.00;63.50;;;;;;5108372;27;44997;-71
2022/05/02 05:09:53;;;;;;;3.03;2.40;;;18.90;63.60;;;;;;5108699;27;44356;-73
2022/05/02 05:12:33;;;;;;;2.73;2.50;;;18.90;63.80;;;;;;5108870;27;44044;-71
2022/05/02 05:18:15;;;;;;;2.97;2.67;;;19.00;64.70;;;;;;5108104;27;44185;-72
2022/05/02 05:20:53;;;;;;;3.77;2.07;;;19.10;64.00;;;;;;5108236;27;43467;-71
2022/05/02 05:23:50;;;;;;;2.00;2.00;;;19.20;63.70;;;;;;5108518;27;43452;-71
2022/05/02 05:26:25;;;;;;;2.20;2.10;;;19.10;63.40;;;;;;5108961;27;43940;-71
2022/05/02 05:28:59;;;;;;;2.23;2.20;;;19.10;63.50;;;;;;5108330;27;45170;-72
2022/05/02 05:31:31;;;;;;;2.27;2.17;;;19.00;63.60;;;;;;5107952;27;43419;-72
2022/05/02 05:34:05;;;;;;;2.93;2.00;;;18.90;63.70;;;;;;5106802;27;44159;-72
2022/05/02 05:36:38;;;;;;;2.40;2.20;;;18.80;63.90;;;;;;5109094;27;44025;-71
2022/05/02 05:39:07;;;;;;;2.53;2.43;;;18.80;64.10;;;;;;5102287;27;43956;-72
2022/05/02 05:41:43;;;;;;;2.23;2.07;;;18.80;64.20;;;;;;5107078;27;45190;-71
2022/05/02 05:44:16;;;;;;;2.20;2.10;;;18.70;64.20;;;;;;5107224;27;44029;-71
2022/05/02 05:46:55;;;;;;;2.63;2.53;;;18.70;64.40;;;;;;5108971;27;44009;-72
2022/05/02 05:49:29;;;;;;;2.43;2.33;;;18.70;64.70;;;;;;5107921;27;44109;-71
2022/05/02 05:52:01;;;;;;;2.53;2.33;;;18.90;64.60;;;;;;5108173;27;44404;-71
2022/05/02 05:54:39;;;;;;;2.40;2.30;;;19.10;64.20;;;;;;5107768;27;44007;-71
2022/05/02 05:57:14;;;;;;;2.10;2.10;;;19.30;63.70;;;;;;5083274;27;43917;-71
2022/05/02 05:59:57;;;;;;;2.13;2.10;;;19.40;63.00;;;;;;5107739;27;43869;-72
2022/05/02 06:02:32;;;;;;;2.93;2.73;;;19.50;62.80;;;;;;5108147;27;44001;-72
2022/05/02 06:05:01;;;;;;;2.43;2.37;;;19.40;62.80;;;;;;5090386;27;44010;-72
2022/05/02 06:07:29;;;;;;;2.50;2.40;;;19.30;62.80;;;;;;5108725;27;43467;-70
2022/05/02 06:09:57;;;;;;;2.50;2.40;;;19.20;62.70;;;;;;5108040;27;43974;-72
2022/05/02 06:12:25;;;;;;;2.10;2.10;;;19.10;62.90;;;;;;5089584;27;45199;-71
2022/05/02 06:20:23;;;;;;;2.30;2.30;;;18.90;63.40;;;;;;5107634;27;43924;-71
2022/05/02 06:22:52;;;;;;;2.30;2.20;;;18.90;64.20;;;;;;5106443;27;45309;-71
2022/05/02 06:25:20;;;;;;;2.27;2.20;;;19.00;64.30;;;;;;5107187;27;43925;-71
2022/05/02 06:27:48;;;;;;;2.40;2.30;;;19.10;63.80;;;;;;5108112;27;43939;-72
2022/05/02 06:30:16;;;;;;;2.27;2.27;;;19.20;63.50;;;;;;5107103;27;43921;-71
2022/05/02 06:32:44;;;;;;;2.43;2.43;;;19.20;63.30;;;;;;5106873;27;44045;-71
2022/05/02 06:35:14;;;;;;;2.27;2.27;;;19.10;63.10;;;;;;5107317;27;43979;-72
2022/05/02 06:37:46;;;;;;;2.30;2.30;;;19.10;63.20;;;;;;5107779;27;43883;-72
2022/05/02 06:40:20;;;;;;;2.17;2.10;;;19.00;63.30;;;;;;5107160;27;43805;-72
2022/05/02 06:42:51;;;;;;;2.63;2.53;;;18.90;63.40;;;;;;5106549;27;43951;-71
2022/05/02 06:45:30;;;;;;;2.40;2.40;;;18.90;63.70;;;;;;5106917;27;44043;-71
2022/05/02 06:48:21;;;;;;;2.23;2.23;;;18.80;63.80;;;;;;5107365;27;43896;-71
2022/05/02 06:50:54;;;;;;;2.20;2.20;;;18.80;64.00;;;;;;5106632;27;44054;-70
2022/05/02 06:54:10;;;;;;;2.63;2.63;;;18.80;64.10;;;;;;5106718;27;43846;-72
2022/05/02 06:56:42;;;;;;;2.57;2.40;;;18.70;64.40;;;;;;5107211;27;44018;-73
2022/05/02 06:59:23;;;;;;;2.70;2.60;;;18.90;64.60;;;;;;5107291;27;43893;-72
2022/05/02 07:01:53;;;;;;;2.93;2.73;;;19.00;64.10;;;;;;5107048;27;44052;-71
2022/05/02 07:04:40;;;;;;;2.50;2.50;;;19.20;63.70;;;;;;5106769;27;43891;-72
2022/05/02 07:07:18;;;;;;;2.47;2.37;;;19.40;63.10;;;;;;5100900;27;44074;-72
2022/05/02 07:09:58;;;;;;;2.27;2.27;;;19.50;62.80;;;;;;5107358;27;43436;-72
2022/05/02 07:12:26;;;;;;;2.40;2.33;;;19.40;62.70;;;;;;5087618;27;45655;-71
2022/05/02 07:15:06;;;;;;;2.10;2.10;;;19.30;62.60;;;;;;5106790;27;44576;-71
2022/05/02 07:18:04;;;;;;;2.20;2.20;;;19.20;62.80;;;;;;5087975;27;43917;-72
2022/05/02 07:20:36;;;;;;;2.00;2.00;;;19.10;63.00;;;;;;5107004;27;43959;-71
2022/05/02 07:23:17;;;;;;;2.30;2.30;;;19.10;63.40;;;;;;5106593;27;43971;-71
2022/05/02 07:25:49;;;;;;;2.20;2.20;;;19.00;63.50;;;;;;5106267;27;43963;-71
2022/05/02 07:28:26;;;;;;;2.10;2.10;;;18.90;63.70;;;;;;5106541;27;44047;-72
2022/05/02 07:30:57;;;;;;;2.20;2.20;;;18.90;64.30;;;;;;5101425;27;44038;-72
2022/05/02 07:33:30;;;;;;;2.30;2.30;;;18.90;64.30;;;;;;5106533;27;43911;-72
2022/05/02 07:36:01;;;;;;;2.10;2.10;;;19.10;64.00;;;;;;5106102;27;43918;-72
2022/05/02 07:38:30;;;;;;;2.20;2.10;;;19.10;63.70;;;;;;5106922;27;43909;-71
2022/05/02 07:43:47;;;;;;;2.00;2.00;;;19.10;63.40;;;;;;5106452;27;43940;-71
2022/05/02 07:46:15;;;;;;;2.20;2.20;;;19.00;63.50;;;;;;5105962;27;43490;-71
2022/05/02 07:48:44;;;;;;;2.10;2.10;;;18.90;63.60;;;;;;5105514;27;43738;-71
2022/05/02 07:51:11;;;;;;;2.07;2.07;;;18.90;63.90;;;;;;5106646;27;43805;-73
2022/05/02 07:53:40;;;;;;;2.20;2.20;;;18.90;64.10;;;;;;5104459;27;45766;-71
2022/05/02 07:56:10;;;;;;;2.53;2.43;;;18.80;64.20;;;;;;5105944;27;43905;-72
2022/05/02 07:58:38;;;;;;;2.47;2.37;;;18.80;64.30;;;;;;5106049;27;43995;-71
2022/05/02 08:01:08;;;;;;;2.40;2.30;;;18.80;64.40;;;;;;5106517;27;44003;-72
2022/05/02 08:03:36;;;;;;;2.40;2.40;;;18.70;64.60;;;;;;5087294;27;45769;-71
2022/05/02 08:06:15;;;;;;;2.20;2.20;;;18.80;65.00;;;;;;5105643;27;44060;-72
2022/05/02 08:08:49;;;;;;;2.13;2.13;;;18.90;64.60;;;;;;5082099;27;44013;-72
2022/05/02 08:11:21;;;;;;;2.37;2.37;;;19.10;64.20;;;;;;5106165;27;43763;-70
2022/05/02 08:13:53;;;;;;;2.30;2.30;;;19.30;63.80;;;;;;5106192;27;44789;-73
2022/05/02 08:16:23;;;;;;;2.40;2.20;;;19.40;63.30;;;;;;5103976;27;43491;-71
2022/05/02 08:19:10;;;;;;;2.30;2.30;;;19.40;63.00;;;;;;5107275;27;44043;-71
2022/05/02 08:21:41;;;;;;;1.90;1.90;;;19.40;63.10;;;;;;5100826;27;44000;-71
2022/05/02 08:27:36;;;;;;;2.10;2.10;;;19.20;63.30;;;;;;5106218;27;44012;-72
2022/05/02 08:30:06;;;;;;;2.30;2.30;;;19.10;63.70;;;;;;5103297;27;43417;-71
2022/05/02 08:32:41;;;;;;;2.30;2.30;;;19.00;63.80;;;;;;5090643;27;43617;-71
2022/05/02 08:35:10;;;;;;;2.03;2.03;;;18.90;63.90;;;;;;5109130;27;43956;-72
2022/05/02 08:37:58;;;;;;;2.17;2.17;;;18.90;64.10;;;;;;5108702;27;44066;-73
2022/05/02 08:40:48;;;;;;;2.10;2.10;;;18.90;64.80;;;;;;5108145;27;44618;-71
2022/05/02 08:43:46;;;;;;;2.57;2.50;;;19.00;64.80;;;;;;5109519;27;44129;-72
2022/05/02 08:46:34;;;;;;;2.10;2.10;;;19.10;64.20;;;;;;5109078;27;43898;-73
2022/05/02 08:49:36;;;;;;;2.20;2.20;;;19.20;63.70;;;;;;5109190;27;43943;-71
2022/05/02 08:52:28;;;;;;;1.90;1.90;;;19.10;63.60;;;;;;5109088;27;43832;-72
2022/05/02 08:55:06;;;;;;;1.93;1.93;;;19.00;63.60;;;;;;5109248;27;44238;-72
2022/05/02 08:57:54;;;;;;;2.03;2.03;;;18.90;63.90;;;;;;5108605;27;44975;-72
2022/05/02 09:00:33;;;;;;;2.23;2.23;;;18.90;64.20;;;;;;5102252;27;43347;-72
2022/05/02 09:03:30;;;;;;;2.23;2.23;;;18.80;64.30;;;;;;5105936;27;43973;-72
2022/05/02 09:06:58;;;;;;;2.23;2.23;;;18.80;64.60;;;;;;5109260;27;43409;-71
2022/05/02 09:09:42;;;;;;;2.13;2.13;;;18.70;64.60;;;;;;5060013;28;44071;-72
2022/05/02 09:12:43;;;;;;;1.97;1.97;;;18.70;64.80;;;;;;5065162;28;43921;-72
2022/05/02 09:15:12;;;;;;;2.10;2.10;;;18.70;65.20;;;;;;5030689;27;43653;-71
2022/05/02 09:18:18;;;;;;;1.97;1.97;;;18.80;65.20;;;;;;5108197;27;43420;-72
2022/05/02 09:20:56;;;;;;;2.20;2.20;;;19.00;64.80;;;;;;5094725;27;44058;-72
2022/05/02 09:24:02;;;;;;;2.00;2.00;;;19.20;64.10;;;;;;5108741;27;43380;-72
2022/05/02 09:27:12;;;;;;;1.90;1.90;;;19.30;63.40;;;;;;5108788;27;44098;-72
2022/05/02 09:30:03;;;;;;;2.00;2.00;;;19.30;63.30;;;;;;5107949;27;43860;-71
2022/05/02 09:32:41;;;;;;;2.10;2.10;;;19.20;63.30;;;;;;5102682;27;44808;-73
2022/05/02 09:35:12;;;;;;;2.10;2.10;;;19.10;63.60;;;;;;5108074;27;43901;-71
2022/05/02 09:37:42;;;;;;;2.20;2.20;;;19.00;64.60;;;;;;5108071;27;44253;-71
2022/05/02 09:40:12;;;;;;;2.30;2.30;;;18.90;64.10;;;;;;5090128;27;43998;-71
2022/05/02 09:42:51;;;;;;;1.90;1.90;;;18.80;64.30;;;;;;5107796;27;44781;-71
2022/05/02 09:51:43;;;;;;;2.13;2.13;;;18.80;65.40;;;;;;5087925;27;43883;-71
2022/05/02 09:56:37;;;;;;;2.00;2.00;;;18.90;65.10;;;;;;5108350;27;44376;-70
2022/05/02 09:57:08;;;;;;;2.10;2.10;;;19.00;64.50;;;;;;5107959;27;43440;-72
2022/05/02 09:59:36;;;;;;;1.97;1.97;;;19.00;64.10;;;;;;5107913;27;44061;-71
2022/05/02 10:02:06;;;;;;;2.00;2.00;;;19.00;64.20;;;;;;5108051;27;43542;-71
2022/05/02 10:04:37;;;;;;;2.10;2.10;;;18.90;64.30;;;;;;5106127;27;46031;-71
2022/05/02 10:07:07;;;;;;;2.23;2.23;;;18.80;64.40;;;;;;5107909;27;43949;-72
2022/05/02 10:09:59;;;;;;;2.20;2.20;;;18.80;64.60;;;;;;5107623;27;44025;-72
2022/05/02 10:12:28;;;;;;;2.00;2.00;;;18.70;64.80;;;;;;5107753;27;44023;-72
2022/05/02 10:15:23;;;;;;;2.03;2.03;;;18.70;64.90;;;;;;5107601;27;44482;-72
2022/05/02 10:18:01;;;;;;;2.20;2.20;;;18.70;65.00;;;;;;5089766;27;44705;-71
2022/05/02 10:20:34;;;;;;;1.80;1.80;;;18.70;65.20;;;;;;5107235;27;44012;-71
2022/05/02 10:23:11;;;;;;;2.30;2.30;;;18.60;65.10;;;;;;5107910;27;43466;-71
2022/05/02 10:25:42;;;;;;;2.00;2.00;;;18.60;65.50;;;;;;5107650;27;44983;-71
2022/05/02 10:28:30;;;;;;;1.90;1.90;;;18.80;65.30;;;;;;5107247;27;43787;-72
2022/05/02 10:31:03;;;;;;;2.07;2.07;;;19.00;64.80;;;;;;5075999;27;43983;-71
2022/05/02 10:33:32;;;;;;;2.00;2.00;;;19.20;64.30;;;;;;5107206;27;43863;-73
2022/05/02 10:36:00;;;;;;;1.93;1.93;;;19.30;63.70;;;;;;5107282;27;43860;-72
2022/05/02 10:38:31;;;;;;;2.13;2.13;;;19.40;63.60;;;;;;5107236;27;43445;-72
2022/05/02 10:41:07;;;;;;;1.97;1.97;;;19.30;63.40;;;;;;5107317;27;44019;-71
2022/05/02 10:43:37;;;;;;;1.87;1.87;;;19.20;63.50;;;;;;5106427;27;43885;-71
2022/05/02 10:46:04;;;;;;;2.10;2.10;;;19.10;63.70;;;;;;5107043;27;45019;-72
2022/05/02 10:48:40;;;;;;;2.00;2.00;;;19.00;64.00;;;;;;5107039;27;43997;-72
2022/05/02 10:51:12;;;;;;;2.00;2.00;;;18.90;64.20;;;;;;5107107;27;43912;-71
2022/05/02 10:53:52;;;;;;;2.13;2.13;;;18.90;65.30;;;;;;5107533;27;44064;-71
2022/05/02 10:56:23;;;;;;;2.00;1.90;;;18.80;64.60;;;;;;5087869;27;44234;-71
2022/05/02 10:58:50;;;;;;;2.00;2.00;;;18.80;65.20;;;;;;5106944;27;44006;-72
2022/05/02 11:01:27;;;;;;;2.20;2.10;;;18.80;65.30;;;;;;5106787;27;44040;-71
2022/05/02 11:04:07;;;;;;;2.00;2.00;;;19.00;64.90;;;;;;5107995;27;43434;-71
2022/05/02 11:06:45;;;;;;;2.10;2.10;;;19.10;64.40;;;;;;5106901;27;43964;-71
2022/05/02 11:09:22;;;;;;;1.90;1.90;;;19.10;64.30;;;;;;5088106;27;44620;-71
2022/05/02 11:11:50;;;;;;;2.00;2.00;;;19.00;64.20;;;;;;5100254;27;43939;-72
2022/05/02 11:14:31;;;;;;;1.97;1.97;;;18.90;64.30;;;;;;5100554;27;43566;-72
2022/05/02 11:17:10;;;;;;;1.90;1.90;;;18.80;64.50;;;;;;5106524;27;43978;-71
2022/05/02 11:22:28;;;;;;;2.00;2.00;;;18.80;64.90;;;;;;5106664;27;43780;-71
2022/05/02 11:25:06;;;;;;;1.90;1.90;;;18.70;65.00;;;;;;5107404;27;43741;-72
2022/05/02 11:27:38;;;;;;;2.00;2.00;;;18.70;65.10;;;;;;5106516;27;44989;-71
2022/05/02 11:30:07;;;;;;;2.07;2.07;;;18.70;65.30;;;;;;5106496;27;43568;-72
2022/05/02 11:32:53;;;;;;;2.10;2.10;;;18.70;65.60;;;;;;5106269;27;43366;-71
2022/05/02 11:35:28;;;;;;;1.90;1.90;;;18.70;65.60;;;;;;5106921;27;43936;-71
2022/05/02 11:37:56;;;;;;;1.83;1.83;;;18.90;65.30;;;;;;5106339;27;44022;-71
2022/05/02 11:40:29;;;;;;;2.00;2.00;;;19.10;64.80;;;;;;5106290;27;43955;-72
2022/05/02 11:42:57;;;;;;;1.90;1.90;;;19.30;64.40;;;;;;5107242;27;43947;-71
2022/05/02 11:45:29;;;;;;;1.90;1.90;;;19.30;63.80;;;;;;5105451;27;43946;-71
2022/05/02 11:48:14;;;;;;;2.00;2.00;;;19.30;63.60;;;;;;5106574;27;43920;-72
2022/05/02 11:50:44;;;;;;;2.07;1.97;;;19.20;63.70;;;;;;5106081;27;44077;-72
2022/05/02 11:53:14;;;;;;;1.93;1.93;;;19.10;63.90;;;;;;5107141;27;43940;-72
2022/05/02 11:55:44;;;;;;;2.00;2.00;;;19.00;64.10;;;;;;5110232;27;43688;-71
2022/05/02 11:58:17;;;;;;;1.90;1.90;;;18.90;64.30;;;;;;5109869;27;43956;-72
2022/05/02 12:00:45;;;;;;;1.93;1.93;;;18.90;64.70;;;;;;5108151;27;45216;-71
2022/05/02 12:03:15;;;;;;;1.73;1.73;;;18.80;64.80;;;;;;5109828;27;44324;-71
2022/05/02 12:05:44;;;;;;;2.20;2.20;;;18.80;65.70;;;;;;5110208;27;43479;-71
2022/05/02 12:08:25;;;;;;;1.90;1.90;;;18.70;65.50;;;;;;5110188;27;44126;-71
2022/05/02 12:11:05;;;;;;;1.77;1.77;;;18.80;65.50;;;;;;5109733;27;44123;-72
2022/05/02 12:13:34;;;;;;;1.93;1.93;;;19.00;65.20;;;;;;5109520;27;44243;-71
2022/05/02 12:16:03;;;;;;;2.03;2.03;;;19.10;64.80;;;;;;5109821;27;43462;-72
2022/05/02 12:18:41;;;;;;;2.00;2.00;;;19.10;64.60;;;;;;5109068;27;44078;-72
2022/05/02 12:21:10;;;;;;;1.90;1.90;;;19.00;64.40;;;;;;5108979;27;44021;-72
2022/05/02 12:23:38;;;;;;;2.00;2.00;;;18.90;64.50;;;;;;5109329;27;44004;-72
2022/05/02 12:26:17;;;;;;;2.00;2.00;;;18.90;64.70;;;;;;5109757;27;43944;-71
2022/05/02 12:28:47;;;;;;;2.20;2.10;;;18.80;64.90;;;;;;5108936;27;44009;-71
2022/05/02 12:31:17;;;;;;;2.07;1.97;;;18.70;65.10;;;;;;5108783;27;43350;-72
2022/05/02 12:33:48;;;;;;;3.47;2.50;;;18.70;65.20;;;;;;5108829;27;44026;-72
2022/05/02 12:36:17;;;;;;;2.20;2.20;;;18.70;65.30;;;;;;5109689;27;43886;-72
2022/05/02 12:38:48;;;;;;;2.43;2.23;;;18.70;65.40;;;;;;5109314;27;44083;-71
2022/05/02 12:41:22;;;;;;;2.87;2.67;;;18.60;65.30;;;;;;5108969;27;44052;-72
2022/05/02 12:43:55;;;;;;;3.57;2.77;;;18.60;65.80;;;;;;5103220;27;43319;-72
2022/05/02 12:46:26;;;;;;;3.23;3.00;;;18.70;65.90;;;;;;5103614;27;44007;-71
2022/05/02 12:48:56;;;;;;;4.07;3.30;;;18.80;65.50;;;;;;5109316;27;43592;-72
2022/05/02 12:51:28;;;;;;;5.27;3.43;;;19.10;65.10;;;;;;5090278;27;44012;-72
2022/05/02 12:54:12;;;;;;;5.03;3.70;;;19.20;64.50;;;;;;5109215;27;43987;-71
2022/05/02 13:02:36;;;;;;;5.43;4.30;;;19.20;63.70;;;;;;5108478;27;44061;-72
2022/05/02 13:05:09;;;;;;;5.20;3.97;;;19.10;64.00;;;;;;5107923;27;44020;-72
2022/05/02 13:07:45;;;;;;;7.10;4.53;;;19.00;64.20;;;;;;5108769;27;44000;-72
2022/05/02 13:10:15;;;;;;;8.70;4.40;;;18.90;64.50;;;;;;5108356;27;44160;-71
2022/05/02 13:12:59;;;;;;;7.63;4.60;;;18.90;64.70;;;;;;5108252;27;44076;-72
2022/05/02 13:15:27;;;;;;;8.90;4.80;;;18.80;64.90;;;;;;5108619;27;43941;-72
2022/05/02 13:17:59;;;;;;;9.17;4.87;;;18.80;65.10;;;;;;5109374;27;43912;-71
2022/05/02 13:20:57;;;;;;;6.33;4.53;;;18.80;65.60;;;;;;5108551;27;44006;-72
2022/05/02 13:23:36;;;;;;;8.27;4.87;;;18.90;65.40;;;;;;5089589;27;46231;-72
2022/05/02 13:26:10;;;;;;;7.53;4.87;;;19.00;64.80;;;;;;5108532;27;43472;-71
2022/05/02 13:28:59;;;;;;;8.43;5.10;;;19.10;64.60;;;;;;5106810;27;43937;-71
2022/05/02 13:31:33;;;;;;;8.37;5.13;;;19.00;64.40;;;;;;5101316;27;43753;-71
2022/05/02 13:34:03;;;;;;;6.97;4.70;;;18.90;64.30;;;;;;5105749;27;43389;-71
2022/05/02 13:36:41;;;;;;;7.30;4.50;;;18.90;64.60;;;;;;5128699;27;43777;-72
2022/05/02 13:39:09;;;;;;;6.93;4.63;;;18.80;64.80;;;;;;5129454;27;43863;-72
2022/05/02 13:41:40;;;;;;;6.97;4.93;;;18.80;65.00;;;;;;5128835;27;45153;-71
2022/05/02 13:44:15;;;;;;;7.67;4.90;;;18.80;65.90;;;;;;5128887;27;43956;-73
2022/05/02 13:46:52;;;;;;;8.77;4.80;;;18.70;66.00;;;;;;5129365;27;43939;-72
2022/05/02 13:49:42;;;;;;;7.97;5.27;;;18.70;65.40;;;;;;5129174;27;43981;-72
2022/05/02 13:52:19;;;;;;;6.37;4.60;;;18.70;65.50;;;;;;5122766;27;44002;-71